Terminal Aerodrome Forecast
Issued by NWS Shreveport, LA

Home | Current Version | Previous Version | Text Only | Print | Product List | Glossary On
Versions: 1 2 3 4 5 6 7 8 9 10 11 12 13 14 15 16 17 18 19
665
FTUS44 KSHV 220520
TAFMLU
TAF
KMLU 220520Z 2206/2306 VRB03KT P6SM SCT250
      TEMPO 2210/2212 5SM BR
     FM221400 VRB03KT P6SM SCT250
     FM221600 VRB04KT P6SM SCT030 SCT250
     FM222000 VRB04KT P6SM SCT045 SCT250
     FM230000 VRB03KT P6SM SCT250=

USA.gov is the U.S. government's official web portal to all federal, state and local government web resources and services.